Time;durP1;ratioP1;P1;durP2;ratioP2;P2;SDS_P1;SDS_P2;PMS_P1;PMS_P2;Temp;Humidity;BMP_temperature;BMP_pressure;BME280_temperature;BME280_humidity;BME280_pressure;Samples;Min_cycle;Max_cycle;Signal;HPM_P1;HPM_P2
2023/07/08 00:00:10;;;;;;;24.55;5.45;;;;;;;18.69;58.14;96517.00;5050220;28;20041;-74
2023/07/08 00:02:37;;;;;;;22.48;5.05;;;;;;;18.66;57.30;96512.16;5050933;28;20048;-73
2023/07/08 00:05:05;;;;;;;24.33;5.15;;;;;;;18.62;56.87;96514.84;5050206;28;20496;-74
2023/07/08 00:07:32;;;;;;;23.95;5.38;;;;;;;18.61;57.08;96507.75;5050716;28;20049;-73
2023/07/08 00:09:58;;;;;;;26.13;5.15;;;;;;;18.62;57.26;96506.56;5050386;28;20594;-73
2023/07/08 00:12:25;;;;;;;25.23;5.55;;;;;;;18.62;58.02;96505.78;5050168;28;20047;-73
2023/07/08 00:14:51;;;;;;;23.00;5.13;;;;;;;18.59;58.54;96501.03;5060375;28;20044;-73
2023/07/08 00:17:17;;;;;;;23.30;5.88;;;;;;;18.60;59.59;96488.81;5050204;28;20052;-73
2023/07/08 00:19:44;;;;;;;29.75;6.90;;;;;;;18.57;59.09;96490.34;5051230;28;20052;-74
2023/07/08 00:22:14;;;;;;;19.33;5.32;;;;;;;18.59;59.49;96495.50;5050747;28;20074;-73
2023/07/08 00:24:42;;;;;;;19.95;4.95;;;;;;;18.62;59.76;96486.47;5050951;28;20065;-73
2023/07/08 00:27:10;;;;;;;26.52;5.93;;;;;;;18.64;59.14;96489.69;5051029;28;20497;-74
2023/07/08 00:29:37;;;;;;;18.95;5.43;;;;;;;18.64;58.51;96490.47;5051415;28;20049;-73
2023/07/08 00:32:10;;;;;;;28.10;6.25;;;;;;;18.62;57.73;96492.00;5050136;28;20056;-74
2023/07/08 00:34:37;;;;;;;21.48;4.88;;;;;;;18.64;58.69;96496.00;5050515;28;20052;-73
2023/07/08 00:37:05;;;;;;;16.55;4.88;;;;;;;18.65;58.45;96489.31;5050039;28;20067;-74
2023/07/08 00:39:33;;;;;;;18.95;5.13;;;;;;;18.68;58.92;96487.78;5050619;28;20040;-73
2023/07/08 00:42:01;;;;;;;24.88;5.32;;;;;;;18.67;57.67;96488.94;5049947;28;20053;-73
2023/07/08 00:44:27;;;;;;;27.98;5.45;;;;;;;18.66;56.98;96498.38;5058647;28;20040;-73
2023/07/08 00:47:02;;;;;;;20.65;5.25;;;;;;;18.66;57.09;96488.13;5050732;28;20404;-73
2023/07/08 00:49:38;;;;;;;15.57;4.47;;;;;;;18.66;56.63;96492.88;5049638;28;20048;-73
2023/07/08 00:52:18;;;;;;;25.30;4.95;;;;;;;18.62;57.30;96492.78;5049650;28;20064;-74
2023/07/08 00:54:46;;;;;;;21.95;4.90;;;;;;;18.60;57.77;96494.34;5049938;28;20049;-73
2023/07/08 00:57:13;;;;;;;25.10;5.70;;;;;;;18.60;59.60;96497.09;5049799;28;20095;-73
2023/07/08 00:59:45;;;;;;;22.45;4.78;;;;;;;18.57;59.67;96495.06;5050203;28;20040;-73
2023/07/08 01:02:14;;;;;;;23.17;5.20;;;;;;;18.56;59.22;96488.75;5049436;28;20041;-73
2023/07/08 01:04:50;;;;;;;16.25;4.75;;;;;;;18.55;59.64;96489.13;5050007;28;20708;-73
2023/07/08 01:07:21;;;;;;;23.25;5.43;;;;;;;18.51;59.49;96489.84;5049488;28;20500;-73
2023/07/08 01:09:53;;;;;;;27.45;5.63;;;;;;;18.50;59.05;96488.25;5049514;28;20389;-73
2023/07/08 01:12:23;;;;;;;24.77;5.73;;;;;;;18.51;58.97;96486.28;5048641;28;20504;-73
2023/07/08 01:14:53;;;;;;;26.58;5.85;;;;;;;18.47;58.60;96486.22;5050899;28;20492;-73
2023/07/08 01:17:19;;;;;;;21.40;5.18;;;;;;;18.46;58.65;96487.38;5048809;28;20090;-73
2023/07/08 01:19:46;;;;;;;28.20;5.97;;;;;;;18.51;59.67;96487.09;5050076;28;20040;-73
2023/07/08 01:22:14;;;;;;;24.25;5.82;;;;;;;18.51;60.62;96495.34;5048961;28;20090;-73
2023/07/08 01:24:43;;;;;;;9.57;4.10;;;;;;;18.52;59.58;96494.19;5049850;28;20049;-73
2023/07/08 01:27:14;;;;;;;18.50;5.25;;;;;;;18.54;60.53;96479.25;5049450;28;20056;-74
2023/07/08 01:29:40;;;;;;;32.03;5.88;;;;;;;18.52;59.64;96483.16;5049668;28;20124;-73
2023/07/08 01:32:07;;;;;;;25.23;5.72;;;;;;;18.50;59.28;96491.00;5048849;28;20049;-73
2023/07/08 01:34:37;;;;;;;21.08;5.35;;;;;;;18.47;59.88;96485.41;5049418;28;20045;-73
2023/07/08 01:37:06;;;;;;;21.42;5.60;;;;;;;18.41;59.83;96487.69;5052305;28;20519;-73
2023/07/08 01:39:34;;;;;;;22.52;5.28;;;;;;;18.42;61.23;96489.25;5053707;28;20056;-73
2023/07/08 01:42:01;;;;;;;22.20;5.70;;;;;;;18.39;60.48;96495.53;5053673;28;20049;-73
2023/07/08 01:44:30;;;;;;;23.67;5.57;;;;;;;18.38;59.62;96493.94;5061915;28;20032;-73
2023/07/08 01:46:59;;;;;;;29.92;6.20;;;;;;;18.36;60.21;96493.50;5061380;28;20041;-73
2023/07/08 01:49:25;;;;;;;20.90;5.50;;;;;;;18.33;58.59;96497.00;5052871;28;20045;-74
2023/07/08 01:51:52;;;;;;;22.27;5.75;;;;;;;18.31;58.17;96502.06;5053425;28;20067;-73
2023/07/08 01:54:18;;;;;;;21.77;5.30;;;;;;;18.31;59.19;96502.06;5052797;28;20045;-73
2023/07/08 01:56:46;;;;;;;22.15;5.53;;;;;;;18.30;59.32;96496.91;5053431;28;20049;-73
2023/07/08 01:59:13;;;;;;;25.75;5.60;;;;;;;18.30;59.32;96502.44;5052551;28;20065;-74
2023/07/08 02:01:39;;;;;;;32.38;6.05;;;;;;;18.29;59.45;96490.59;5053234;28;20052;-73
2023/07/08 02:04:06;;;;;;;22.80;5.32;;;;;;;18.26;58.53;96499.59;5052912;28;20045;-73
2023/07/08 02:06:32;;;;;;;25.10;5.25;;;;;;;18.25;58.38;96495.25;5053415;28;20053;-74
2023/07/08 02:08:59;;;;;;;32.05;5.75;;;;;;;18.24;58.96;96499.16;5053425;28;20052;-74
2023/07/08 02:11:25;;;;;;;32.08;6.28;;;;;;;18.25;58.40;96496.03;5052589;28;20611;-73
2023/07/08 02:13:53;;;;;;;24.80;5.40;;;;;;;18.23;58.88;96503.09;5056672;28;20059;-73
2023/07/08 02:16:20;;;;;;;29.98;6.60;;;;;;;18.22;58.77;96496.00;5064725;28;20052;-73
2023/07/08 02:18:46;;;;;;;27.85;6.05;;;;;;;18.21;58.72;96500.69;5052829;28;20041;-73
2023/07/08 02:21:13;;;;;;;17.67;5.50;;;;;;;18.20;59.66;96492.78;5052753;28;20124;-73
2023/07/08 02:23:40;;;;;;;31.83;6.55;;;;;;;18.17;59.55;96488.03;5052463;28;20124;-73
2023/07/08 02:26:06;;;;;;;29.23;6.28;;;;;;;18.13;59.41;96482.44;5052798;28;20041;-74
2023/07/08 02:28:33;;;;;;;19.55;5.07;;;;;;;18.11;59.79;96484.72;5053351;28;20048;-73
2023/07/08 02:31:03;;;;;;;29.55;5.95;;;;;;;18.09;60.01;96491.78;5053540;28;20048;-73
2023/07/08 02:33:32;;;;;;;20.33;5.30;;;;;;;18.07;60.87;96480.34;5054713;28;20691;-73
2023/07/08 02:35:59;;;;;;;26.52;6.00;;;;;;;18.06;61.81;96478.72;5056680;28;20045;-73
2023/07/08 02:38:25;;;;;;;31.35;6.00;;;;;;;18.04;61.29;96483.81;5053005;28;20049;-73
2023/07/08 02:40:52;;;;;;;24.23;5.57;;;;;;;18.02;60.02;96475.13;5057546;28;20199;-73
2023/07/08 02:43:18;;;;;;;24.42;5.50;;;;;;;17.99;59.99;96466.41;5057164;28;20044;-74
2023/07/08 02:45:45;;;;;;;16.52;5.10;;;;;;;18.00;59.96;96478.22;5059792;28;20045;-73
2023/07/08 02:48:13;;;;;;;22.52;5.80;;;;;;;18.00;60.96;96476.25;5056633;28;20496;-74
2023/07/08 02:50:39;;;;;;;19.23;5.05;;;;;;;18.02;62.07;96477.88;5059213;28;20054;-73
2023/07/08 02:53:06;;;;;;;29.58;6.28;;;;;;;17.98;61.55;96484.09;5059459;28;20049;-74
2023/07/08 02:55:32;;;;;;;23.42;5.30;;;;;;;17.96;60.64;96480.91;5059366;28;20055;-73
2023/07/08 02:57:59;;;;;;;17.27;5.38;;;;;;;17.94;60.34;96480.47;5059002;28;20511;-73
2023/07/08 03:00:25;;;;;;;25.50;5.75;;;;;;;17.93;60.41;96478.09;5057993;28;20049;-74
2023/07/08 03:02:52;;;;;;;21.85;5.85;;;;;;;17.93;60.15;96484.38;5058312;28;20404;-73
2023/07/08 03:05:20;;;;;;;23.85;5.93;;;;;;;17.89;61.42;96483.50;5057040;28;20048;-73
2023/07/08 03:07:46;;;;;;;22.23;5.18;;;;;;;17.86;61.03;96472.44;5057756;28;20044;-73
2023/07/08 03:10:12;;;;;;;24.50;5.82;;;;;;;17.83;60.77;96479.44;5056938;28;20060;-74
2023/07/08 03:12:39;;;;;;;22.75;6.00;;;;;;;17.82;61.40;96486.13;5056575;28;20052;-74
2023/07/08 03:15:06;;;;;;;23.40;5.80;;;;;;;17.81;62.07;96492.78;5065093;28;20047;-73
2023/07/08 03:17:33;;;;;;;17.88;5.20;;;;;;;17.82;63.74;96480.63;5072117;28;20492;-73
2023/07/08 03:19:59;;;;;;;25.17;6.50;;;;;;;17.80;63.08;96476.59;5055875;28;20048;-73
2023/07/08 03:22:27;;;;;;;16.65;4.75;;;;;;;17.74;61.96;96479.66;5051627;28;20052;-73
2023/07/08 03:24:55;;;;;;;21.55;5.60;;;;;;;17.71;61.75;96482.31;5051779;28;20060;-73
2023/07/08 03:27:22;;;;;;;20.38;5.45;;;;;;;17.68;61.93;96478.31;5051228;28;20056;-73
2023/07/08 03:29:48;;;;;;;23.17;6.07;;;;;;;17.66;62.95;96479.84;5051279;28;20419;-73
2023/07/08 03:32:15;;;;;;;23.25;6.32;;;;;;;17.65;63.17;96483.78;5050728;28;20136;-73
2023/07/08 03:34:41;;;;;;;20.55;6.13;;;;;;;17.64;63.89;96474.69;5051456;28;20539;-73
2023/07/08 03:37:10;;;;;;;18.75;5.85;;;;;;;17.64;65.25;96477.44;5051197;28;20052;-73
2023/07/08 03:39:38;;;;;;;20.63;6.00;;;;;;;17.65;64.46;96483.78;5051429;28;20437;-73
2023/07/08 03:42:05;;;;;;;20.02;6.22;;;;;;;17.63;64.43;96488.81;5050637;28;20053;-74
2023/07/08 03:44:32;;;;;;;19.42;5.72;;;;;;;17.63;64.06;96477.81;5053436;28;20045;-73
2023/07/08 03:46:58;;;;;;;13.70;5.38;;;;;;;17.63;64.54;96480.56;5050843;28;20087;-73
2023/07/08 03:49:25;;;;;;;21.40;5.57;;;;;;;17.63;65.05;96483.31;5050503;28;20045;-73
2023/07/08 03:51:54;;;;;;;20.40;6.10;;;;;;;17.61;64.70;96471.88;5050740;28;20048;-73
2023/07/08 03:54:22;;;;;;;19.70;5.63;;;;;;;17.60;64.27;96470.28;5050855;28;20507;-73
2023/07/08 03:56:50;;;;;;;20.38;6.07;;;;;;;17.59;64.32;96475.00;5050916;28;20413;-73
2023/07/08 03:59:17;;;;;;;23.85;6.45;;;;;;;17.60;64.22;96476.59;5050116;28;20049;-73
2023/07/08 04:01:43;;;;;;;12.75;5.28;;;;;;;17.62;64.31;96478.97;5050777;28;20045;-73
2023/07/08 04:04:12;;;;;;;23.05;6.28;;;;;;;17.64;64.49;96482.16;5050309;28;20056;-73
2023/07/08 04:06:39;;;;;;;22.60;6.22;;;;;;;17.65;64.09;96472.75;5051083;28;20065;-73
2023/07/08 04:09:06;;;;;;;19.77;5.40;;;;;;;17.67;64.40;96470.44;5050351;28;20041;-74
2023/07/08 04:11:33;;;;;;;30.45;6.82;;;;;;;17.71;65.45;96465.78;5050321;28;20045;-73
2023/07/08 04:14:00;;;;;;;22.23;5.97;;;;;;;17.72;65.67;96470.13;5055755;28;20047;-73
2023/07/08 04:16:30;;;;;;;16.48;5.13;;;;;;;17.73;65.46;96474.50;5078244;28;20036;-73
2023/07/08 04:18:58;;;;;;;17.55;5.47;;;;;;;17.76;64.86;96462.78;5070577;28;20407;-73
2023/07/08 04:21:25;;;;;;;25.25;6.50;;;;;;;17.79;65.96;96466.75;5069798;28;20044;-73
2023/07/08 04:23:52;;;;;;;28.95;6.10;;;;;;;17.82;66.95;96461.34;5070718;28;20048;-74
2023/07/08 04:26:19;;;;;;;21.15;6.38;;;;;;;17.85;65.14;96477.13;5070028;28;20036;-73
2023/07/08 04:28:46;;;;;;;22.75;6.38;;;;;;;17.89;64.66;96471.69;5070106;28;20504;-73
2023/07/08 04:31:14;;;;;;;23.48;5.93;;;;;;;17.93;65.04;96472.56;5069788;28;20040;-73
2023/07/08 04:33:40;;;;;;;22.65;6.10;;;;;;;17.95;65.19;96471.03;5070440;28;20079;-74
2023/07/08 04:36:13;;;;;;;23.88;5.97;;;;;;;17.99;64.53;96477.41;5069973;28;20045;-73
2023/07/08 04:38:41;;;;;;;21.23;5.97;;;;;;;18.04;65.09;96478.28;5070730;28;20048;-73
2023/07/08 04:41:07;;;;;;;16.67;5.45;;;;;;;18.06;65.26;96484.22;5069415;28;20139;-73
2023/07/08 04:43:33;;;;;;;21.48;5.75;;;;;;;18.08;64.37;96490.19;5071063;28;20404;-73
2023/07/08 04:46:00;;;;;;;25.10;6.15;;;;;;;18.09;64.43;96492.56;5069150;28;20400;-73
2023/07/08 04:48:28;;;;;;;23.30;5.95;;;;;;;18.13;65.70;96487.16;5069889;28;20398;-73
2023/07/08 04:50:55;;;;;;;17.02;5.60;;;;;;;18.13;65.45;96498.16;5069865;28;20055;-73
2023/07/08 04:53:21;;;;;;;23.13;6.40;;;;;;;18.10;65.22;96493.38;5069442;28;20056;-73
2023/07/08 04:55:51;;;;;;;22.60;6.38;;;;;;;18.04;65.50;96505.84;5069875;28;20040;-73
2023/07/08 04:58:17;;;;;;;33.50;7.47;;;;;;;17.88;67.46;96503.97;5069588;28;20047;-73
2023/07/08 05:00:44;;;;;;;17.30;5.32;;;;;;;17.88;66.31;96498.44;5069973;28;20403;-73
2023/07/08 05:03:10;;;;;;;21.58;5.93;;;;;;;17.92;66.51;96504.84;5069631;28;20045;-74
2023/07/08 05:05:38;;;;;;;23.58;5.95;;;;;;;17.92;66.57;96496.56;5069845;28;20055;-73
2023/07/08 05:08:05;;;;;;;23.70;5.65;;;;;;;17.91;65.82;96519.78;5069679;28;20426;-73
2023/07/08 05:10:31;;;;;;;21.85;5.57;;;;;;;17.87;65.14;96513.38;5069178;28;20052;-73
2023/07/08 05:12:58;;;;;;;25.08;6.53;;;;;;;17.86;65.39;96522.81;5069851;28;20055;-74
2023/07/08 05:15:24;;;;;;;23.98;6.25;;;;;;;17.82;65.47;96521.94;5085271;28;20063;-73
2023/07/08 05:17:51;;;;;;;19.77;5.95;;;;;;;17.76;66.21;96525.34;5090692;28;20055;-73
2023/07/08 05:20:19;;;;;;;21.52;6.05;;;;;;;17.79;66.18;96528.16;5071350;28;20572;-73
2023/07/08 05:22:47;;;;;;;18.17;5.38;;;;;;;17.84;67.33;96530.63;5070963;28;20446;-73
2023/07/08 05:25:14;;;;;;;18.35;5.72;;;;;;;17.86;68.78;96539.34;5071538;28;20052;-74
2023/07/08 05:27:41;;;;;;;22.02;6.18;;;;;;;17.93;71.59;96539.47;5077973;28;20048;-74
2023/07/08 05:30:17;;;;;;;24.40;6.40;;;;;;;17.98;71.64;96541.97;5075920;28;20045;-73
2023/07/08 05:32:44;;;;;;;24.15;6.18;;;;;;;18.02;71.91;96553.06;5075833;28;20056;-74
2023/07/08 05:35:11;;;;;;;28.75;7.03;;;;;;;18.02;71.71;96560.53;5074359;28;20040;-73
2023/07/08 05:37:39;;;;;;;24.20;6.78;;;;;;;18.02;70.49;96558.56;5076800;28;20127;-73
2023/07/08 05:40:09;;;;;;;20.33;5.80;;;;;;;18.07;70.02;96555.53;5077247;28;20052;-74
2023/07/08 05:42:36;;;;;;;18.17;5.47;;;;;;;18.13;70.38;96556.03;5076686;28;20510;-73
2023/07/08 05:45:03;;;;;;;14.52;5.45;;;;;;;18.20;69.55;96553.41;5086287;28;20036;-73
2023/07/08 05:47:29;;;;;;;21.23;5.88;;;;;;;18.24;67.34;96549.59;5070200;28;20051;-74
2023/07/08 05:49:56;;;;;;;17.23;5.57;;;;;;;18.30;67.05;96552.84;5069816;28;20056;-73
2023/07/08 05:52:22;;;;;;;27.50;6.65;;;;;;;18.35;66.51;96543.50;5069004;28;20051;-73
2023/07/08 05:54:49;;;;;;;21.52;5.63;;;;;;;18.39;66.71;96549.88;5070495;28;20053;-73
2023/07/08 05:57:17;;;;;;;18.48;5.70;;;;;;;18.41;66.69;96553.84;5069588;28;20056;-74
2023/07/08 05:59:44;;;;;;;23.80;6.35;;;;;;;18.38;64.95;96556.56;5070047;28;20500;-73
2023/07/08 06:02:12;;;;;;;25.30;6.95;;;;;;;18.38;65.76;96560.09;5069262;28;20045;-74
2023/07/08 06:04:38;;;;;;;23.45;6.05;;;;;;;18.42;66.86;96562.91;5069817;28;20040;-73
2023/07/08 06:07:06;;;;;;;21.15;6.75;;;;;;;18.40;66.56;96562.50;5068925;28;20040;-73
2023/07/08 06:09:32;;;;;;;21.73;5.80;;;;;;;18.46;66.16;96570.09;5069662;28;20047;-73
2023/07/08 06:11:59;;;;;;;30.63;7.38;;;;;;;18.50;65.75;96564.66;5069742;28;20041;-73
2023/07/08 06:14:27;;;;;;;21.33;5.68;;;;;;;18.57;67.06;96556.53;5077483;28;20040;-73
2023/07/08 06:16:55;;;;;;;31.27;6.93;;;;;;;18.52;65.87;96551.28;5083288;28;20045;-73
2023/07/08 06:19:21;;;;;;;30.05;6.30;;;;;;;18.64;66.47;96556.66;5069146;28;20052;-74
2023/07/08 06:21:48;;;;;;;27.10;5.90;;;;;;;18.67;66.53;96550.41;5069018;28;20052;-73
2023/07/08 06:24:14;;;;;;;26.15;7.00;;;;;;;18.64;65.22;96545.63;5072042;28;20047;-73
2023/07/08 06:26:41;;;;;;;27.60;7.32;;;;;;;18.47;63.94;96541.34;5072998;28;20479;-74
2023/07/08 06:29:07;;;;;;;29.27;6.85;;;;;;;18.62;63.63;96542.44;5072493;28;20044;-74
2023/07/08 06:31:35;;;;;;;35.35;7.55;;;;;;;18.81;63.33;96544.41;5072972;28;20048;-74
2023/07/08 06:34:02;;;;;;;40.22;6.75;;;;;;;18.93;63.38;96532.38;5072328;28;20064;-74
2023/07/08 06:36:28;;;;;;;36.63;7.15;;;;;;;18.90;62.17;96539.44;5073252;28;20048;-75
2023/07/08 06:38:55;;;;;;;8.68;6.00;;;;;;;18.97;63.13;96536.78;5072695;28;20079;-74
2023/07/08 06:41:21;;;;;;;9.35;6.18;;;;;;;18.94;61.85;96543.03;5072180;28;20040;-74
2023/07/08 06:43:48;;;;;;;8.75;5.57;;;;;;;19.10;62.47;96542.13;5075785;28;20394;-74
2023/07/08 06:46:14;;;;;;;10.25;6.22;;;;;;;19.24;61.62;96534.88;5092240;28;20403;-73
2023/07/08 06:48:42;;;;;;;7.57;5.70;;;;;;;19.40;62.19;96536.69;5077343;28;20487;-73
2023/07/08 06:51:08;;;;;;;8.40;5.18;;;;;;;19.46;61.20;96533.25;5072420;28;20041;-74
2023/07/08 06:53:35;;;;;;;9.23;5.38;;;;;;;19.60;61.08;96537.44;5072355;28;20045;-74
2023/07/08 06:56:02;;;;;;;7.60;4.90;;;;;;;19.70;60.33;96529.28;5072190;28;20041;-75
2023/07/08 06:58:29;;;;;;;9.55;5.55;;;;;;;19.72;60.06;96538.00;5072946;28;20068;-74
2023/07/08 07:00:55;;;;;;;8.63;5.22;;;;;;;19.78;60.45;96533.78;5073075;28;20500;-73
2023/07/08 07:03:22;;;;;;;8.50;5.10;;;;;;;19.99;61.16;96532.44;5072027;28;20534;-73
2023/07/08 07:05:50;;;;;;;41.08;7.18;;;;;;;20.07;60.62;96537.69;5072862;28;20396;-73
2023/07/08 07:08:16;;;;;;;37.65;6.82;;;;;;;19.99;59.41;96541.56;5071750;28;20040;-74
2023/07/08 07:10:43;;;;;;;35.13;7.00;;;;;;;19.96;59.26;96542.28;5072079;28;20048;-74
2023/07/08 07:13:09;;;;;;;19.10;6.47;;;;;;;20.13;59.76;96537.38;5071564;28;20044;-74
2023/07/08 07:15:36;;;;;;;28.15;6.45;;;;;;;20.30;58.33;96547.84;5090486;28;20051;-74
2023/07/08 07:18:03;;;;;;;18.15;7.07;;;;;;;20.39;57.94;96545.59;5084295;28;20040;-74
2023/07/08 07:20:29;;;;;;;26.60;7.13;;;;;;;20.57;57.93;96537.53;5071920;28;20052;-74
2023/07/08 07:22:57;;;;;;;17.02;6.03;;;;;;;20.65;56.56;96543.94;5071579;28;20403;-74
2023/07/08 07:25:24;;;;;;;27.08;7.32;;;;;;;20.79;56.77;96544.09;5071019;28;20040;-74
2023/07/08 07:27:50;;;;;;;22.42;7.53;;;;;;;20.83;56.47;96539.41;5071955;28;20056;-74
2023/07/08 07:30:17;;;;;;;23.50;7.63;;;;;;;20.84;56.52;96546.53;5071076;28;20064;-74
2023/07/08 07:32:43;;;;;;;25.98;6.97;;;;;;;20.86;57.00;96549.69;5070949;28;20052;-74
2023/07/08 07:35:14;;;;;;;25.45;7.40;;;;;;;20.92;56.38;96550.94;5070884;28;20048;-73
2023/07/08 07:37:44;;;;;;;19.42;6.72;;;;;;;20.91;56.26;96552.13;5071797;28;20059;-74
2023/07/08 07:40:15;;;;;;;27.88;7.40;;;;;;;20.97;55.08;96561.66;5071191;28;20041;-74
2023/07/08 07:42:43;;;;;;;21.40;6.80;;;;;;;20.99;55.75;96562.09;5071080;28;20511;-74
2023/07/08 07:45:10;;;;;;;24.65;7.70;;;;;;;20.91;54.69;96554.88;5071463;28;20075;-73
2023/07/08 07:47:37;;;;;;;29.60;7.85;;;;;;;20.90;54.75;96555.28;5071079;28;20044;-74
2023/07/08 07:50:04;;;;;;;24.13;7.53;;;;;;;20.88;56.67;96563.97;5071082;28;20040;-74
2023/07/08 07:52:30;;;;;;;20.27;7.38;;;;;;;20.78;54.03;96553.56;5071185;28;21457;-74
2023/07/08 07:54:57;;;;;;;32.25;7.35;;;;;;;21.01;54.75;96558.94;5071357;28;20048;-74
2023/07/08 07:57:25;;;;;;;21.33;7.05;;;;;;;21.02;55.39;96558.53;5070875;28;20053;-73
2023/07/08 07:59:52;;;;;;;18.60;6.35;;;;;;;21.23;55.56;96565.47;5071329;28;20049;-74
2023/07/08 08:02:19;;;;;;;34.00;8.63;;;;;;;21.20;54.63;96574.56;5070449;28;20492;-73
2023/07/08 08:04:46;;;;;;;24.60;7.63;;;;;;;21.20;53.59;96585.63;5070997;28;20400;-74
2023/07/08 08:07:12;;;;;;;30.83;7.32;;;;;;;21.45;54.55;96583.09;5071330;28;20056;-74
2023/07/08 08:09:39;;;;;;;29.92;7.80;;;;;;;21.55;52.94;96585.94;5070756;28;20048;-74
2023/07/08 08:12:09;;;;;;;37.15;8.85;;;;;;;21.66;54.95;96580.47;5070306;28;20503;-74
2023/07/08 08:14:37;;;;;;;32.22;7.88;;;;;;;21.66;52.44;96579.69;5075384;28;20510;-74
2023/07/08 08:17:04;;;;;;;37.30;8.10;;;;;;;21.71;53.80;96574.56;5070346;28;20040;-74
2023/07/08 08:19:31;;;;;;;24.80;7.40;;;;;;;21.63;51.52;96584.03;5070497;28;20064;-74
2023/07/08 08:21:57;;;;;;;28.20;7.75;;;;;;;21.77;52.07;96586.09;5070217;28;20466;-74
2023/07/08 08:24:24;;;;;;;29.38;7.22;;;;;;;21.89;53.35;96583.03;5069867;28;20045;-74
2023/07/08 08:26:50;;;;;;;26.85;6.57;;;;;;;21.98;54.02;96580.72;5070606;28;20411;-74
2023/07/08 08:29:17;;;;;;;27.00;6.47;;;;;;;22.05;55.34;96579.97;5069932;28;20060;-74
2023/07/08 08:31:45;;;;;;;41.88;10.65;;;;;;;22.05;55.57;96585.50;5070091;28;20044;-74
2023/07/08 08:34:11;;;;;;;31.30;10.10;;;;;;;22.06;55.03;96585.09;5069886;28;20055;-74
2023/07/08 08:36:38;;;;;;;28.05;8.48;;;;;;;22.02;52.19;96592.59;5070505;28;20056;-73
2023/07/08 08:39:04;;;;;;;36.45;9.25;;;;;;;22.06;52.50;96604.53;5069644;28;20051;-74
2023/07/08 08:41:32;;;;;;;40.75;10.18;;;;;;;21.85;51.90;96615.47;5070309;28;20053;-73
2023/07/08 08:44:00;;;;;;;30.02;8.43;;;;;;;21.89;51.76;96619.06;5071507;28;20041;-74
2023/07/08 08:46:35;;;;;;;36.70;8.50;;;;;;;22.03;53.09;96624.72;5067315;28;20040;-74
2023/07/08 08:49:14;;;;;;;23.83;7.32;;;;;;;21.92;53.65;96617.50;5069368;28;20055;-75
2023/07/08 08:51:41;;;;;;;32.17;8.30;;;;;;;21.96;53.60;96621.88;5070051;28;20072;-74
2023/07/08 08:54:09;;;;;;;27.98;7.93;;;;;;;21.88;53.39;96612.72;5069783;28;20389;-73
2023/07/08 08:56:40;;;;;;;24.27;7.22;;;;;;;21.83;54.43;96612.31;5070197;28;20045;-74
2023/07/08 08:59:18;;;;;;;30.38;8.25;;;;;;;21.70;53.16;96624.84;5069279;28;20055;-74
2023/07/08 09:01:47;;;;;;;25.58;7.75;;;;;;;21.76;54.84;96626.09;5069810;28;20048;-74
2023/07/08 09:04:21;;;;;;;24.65;7.40;;;;;;;21.69;53.86;96639.91;5069204;28;20055;-74
2023/07/08 09:06:54;;;;;;;27.02;7.70;;;;;;;21.68;53.95;96627.22;5070371;28;20131;-74
2023/07/08 09:09:31;;;;;;;18.15;6.88;;;;;;;21.77;55.21;96627.66;5069379;28;20044;-74
2023/07/08 09:12:04;;;;;;;28.13;7.50;;;;;;;21.88;57.49;96634.91;5070553;28;20535;-74
2023/07/08 09:14:36;;;;;;;33.42;8.52;;;;;;;21.98;56.39;96640.91;5070246;28;20048;-74
2023/07/08 09:17:17;;;;;;;33.03;8.27;;;;;;;22.00;57.80;96644.09;5069137;28;20462;-74
2023/07/08 09:19:50;;;;;;;30.80;6.88;;;;;;;22.02;57.71;96631.44;5071441;28;20052;-74
2023/07/08 09:22:21;;;;;;;37.80;8.18;;;;;;;22.09;59.03;96630.69;5074271;28;20040;-74
2023/07/08 09:24:52;;;;;;;30.27;7.47;;;;;;;22.14;57.67;96644.22;5074737;28;20071;-74
2023/07/08 09:27:18;;;;;;;32.83;7.70;;;;;;;22.18;57.37;96639.47;5075034;28;20127;-74
2023/07/08 09:29:46;;;;;;;21.60;7.00;;;;;;;22.11;55.90;96639.44;5074453;28;20049;-74
2023/07/08 09:32:17;;;;;;;36.10;7.80;;;;;;;22.09;56.53;96631.50;5066520;28;20052;-75
2023/07/08 09:34:48;;;;;;;32.70;8.07;;;;;;;22.15;57.26;96631.94;5074743;28;20106;-74
2023/07/08 09:37:23;;;;;;;25.92;7.25;;;;;;;22.30;57.46;96639.19;5075090;28;20052;-74
2023/07/08 09:39:50;;;;;;;29.08;7.35;;;;;;;22.31;55.81;96635.22;5079192;28;20052;-74
2023/07/08 09:42:17;;;;;;;25.95;7.82;;;;;;;22.39;53.96;96634.09;5076878;28;20040;-74
2023/07/08 09:44:46;;;;;;;27.02;7.57;;;;;;;22.38;55.62;96637.22;5086186;28;20040;-74
2023/07/08 09:47:22;;;;;;;29.95;8.30;;;;;;;22.35;55.15;96644.34;5095343;28;20040;-74
2023/07/08 09:49:52;;;;;;;31.15;8.20;;;;;;;22.45;52.59;96642.84;5074576;28;20053;-74
2023/07/08 09:52:18;;;;;;;45.58;9.13;;;;;;;22.46;54.64;96643.63;5067569;28;20052;-74
2023/07/08 09:54:46;;;;;;;21.38;6.78;;;;;;;22.58;53.46;96641.28;5087198;28;20044;-74
2023/07/08 09:57:26;;;;;;;31.27;8.23;;;;;;;22.62;51.55;96635.78;5074391;28;20047;-74
2023/07/08 09:59:58;;;;;;;33.25;8.93;;;;;;;22.70;50.64;96633.81;5072318;28;20139;-74
2023/07/08 10:02:31;;;;;;;22.40;7.40;;;;;;;22.68;51.45;96642.53;5072396;28;20060;-73
2023/07/08 10:05:02;;;;;;;24.45;7.45;;;;;;;22.78;50.40;96649.31;5073535;28;20056;-74
2023/07/08 10:07:31;;;;;;;29.65;7.97;;;;;;;22.78;48.83;96650.13;5057008;28;20132;-74
2023/07/08 10:10:05;;;;;;;34.38;8.20;;;;;;;22.70;50.97;96647.69;5072953;28;20048;-74
2023/07/08 10:12:32;;;;;;;33.30;8.48;;;;;;;22.73;52.44;96642.16;5073246;28;20045;-74
2023/07/08 10:15:02;;;;;;;25.75;7.72;;;;;;;22.86;53.49;96650.91;5073073;28;20051;-74
2023/07/08 10:17:30;;;;;;;25.67;7.70;;;;;;;22.84;53.05;96643.00;5073182;28;20048;-74
2023/07/08 10:19:58;;;;;;;36.50;8.63;;;;;;;22.93;53.30;96645.44;5072682;28;20055;-74
2023/07/08 10:22:39;;;;;;;28.67;7.25;;;;;;;22.94;52.75;96644.25;5073234;28;20044;-74
2023/07/08 10:25:17;;;;;;;32.70;8.07;;;;;;;22.94;53.90;96647.03;5073778;28;20048;-74
2023/07/08 10:27:51;;;;;;;29.45;7.30;;;;;;;22.99;53.76;96654.97;5073876;28;20094;-73
2023/07/08 10:30:22;;;;;;;29.05;7.78;;;;;;;23.07;52.79;96651.03;5072243;28;20050;-74
2023/07/08 10:33:33;;;;;;;30.42;7.60;;;;;;;23.03;53.09;96655.78;5072783;28;20140;-74
2023/07/08 10:36:15;;;;;;;20.83;7.35;;;;;;;23.26;51.99;96649.09;5072729;28;20423;-74
2023/07/08 10:38:59;;;;;;;23.98;7.88;;;;;;;23.17;52.03;96655.81;5072632;28;20128;-74
2023/07/08 10:41:41;;;;;;;47.95;9.48;;;;;;;23.42;52.23;96655.06;5071998;28;20181;-74
2023/07/08 10:44:16;;;;;;;40.45;9.00;;;;;;;23.44;50.87;96647.16;5071314;28;20053;-74
2023/07/08 10:46:52;;;;;;;29.83;8.30;;;;;;;23.52;51.11;96653.50;5072355;28;20037;-74
2023/07/08 10:49:36;;;;;;;33.35;7.72;;;;;;;23.68;51.06;96646.41;5071990;28;20522;-74
2023/07/08 10:52:19;;;;;;;33.78;7.97;;;;;;;23.64;51.49;96648.38;5072174;28;20037;-75
2023/07/08 10:55:01;;;;;;;32.63;8.02;;;;;;;23.84;51.07;96653.53;5072799;28;20045;-74
2023/07/08 10:57:50;;;;;;;32.08;7.13;;;;;;;23.97;49.93;96654.75;5071870;28;20044;-73
2023/07/08 11:00:28;;;;;;;27.67;7.03;;;;;;;24.12;51.16;96653.53;5071604;28;20056;-74
2023/07/08 11:03:20;;;;;;;39.70;8.57;;;;;;;24.33;50.02;96651.91;5072337;28;20044;-74
2023/07/08 11:05:53;;;;;;;30.45;7.93;;;;;;;24.42;49.46;96649.53;5072311;28;20044;-74
2023/07/08 11:08:27;;;;;;;31.55;8.15;;;;;;;24.41;47.66;96650.72;5070614;28;20132;-74
2023/07/08 11:10:58;;;;;;;34.22;8.25;;;;;;;24.43;47.41;96645.53;5071596;28;20515;-74
2023/07/08 11:13:27;;;;;;;34.15;8.35;;;;;;;24.39;47.01;96644.78;5070878;28;20078;-74
2023/07/08 11:15:58;;;;;;;31.27;6.90;;;;;;;24.42;47.76;96649.53;5071726;28;20044;-74
2023/07/08 11:18:31;;;;;;;29.13;7.53;;;;;;;24.48;49.05;96642.34;5071204;28;20040;-74
2023/07/08 11:21:02;;;;;;;34.92;7.75;;;;;;;24.50;47.33;96656.69;5071945;28;20052;-74
2023/07/08 11:23:36;;;;;;;26.40;6.85;;;;;;;24.50;47.84;96645.53;5071221;28;20049;-74
2023/07/08 11:26:21;;;;;;;41.15;8.23;;;;;;;24.39;46.78;96651.13;5071093;28;20043;-74
2023/07/08 11:28:50;;;;;;;29.13;6.97;;;;;;;24.47;46.71;96640.75;5071688;28;20055;-74
2023/07/08 11:31:17;;;;;;;32.45;7.70;;;;;;;24.54;48.44;96643.53;5070777;28;20052;-74